WZZ251 EPKT-EPMO
Flight info
| Callsign | WZZ251 |
|---|---|
| Flight time | 0h 41m |
| Altitude | 25000 |
| Route | NAVUR N744 OVBOR/N0395F240 N133 NUBLI |
| Aircraft | A20N/M-SDE2E3FGHIRWXY/LB1 |
Departure
| Time | 2026-03-27 09:33 |
|---|---|
| Airport | Katowice Wojciech Korfanty International Airport (EPKT) |
Arrival
| Time | 2026-03-27 10:14 |
|---|---|
| Airport | Warsaw Modlin Airport (EPMO) |
| Time | Latitude | Longitude | Altitude | Speed | Heading |
|---|---|---|---|---|---|
| 2026-03-27 09:18 | 50.47182 | 19.07557 | 998 ft | 0 kts | 180° |
| 2026-03-27 09:25 | 50.47184 | 19.07557 | 998 ft | 3 kts | 180° |
| 2026-03-27 09:26 | 50.47206 | 19.07557 | 998 ft | 3 kts | 180° |
| 2026-03-27 09:26 | 50.47228 | 19.07553 | 999 ft | 3 kts | 142° |
| 2026-03-27 09:26 | 50.47238 | 19.07533 | 998 ft | 0 kts | 97° |
| 2026-03-27 09:29 | 50.47236 | 19.07550 | 1000 ft | 5 kts | 96° |
| 2026-03-27 09:29 | 50.47233 | 19.07654 | 1003 ft | 14 kts | 91° |
| 2026-03-27 09:29 | 50.47234 | 19.07849 | 998 ft | 22 kts | 90° |
| 2026-03-27 09:29 | 50.47234 | 19.08122 | 1003 ft | 28 kts | 89° |
| 2026-03-27 09:30 | 50.47232 | 19.08452 | 1001 ft | 32 kts | 92° |
| 2026-03-27 09:30 | 50.47231 | 19.08807 | 1002 ft | 33 kts | 90° |
| 2026-03-27 09:30 | 50.47233 | 19.09163 | 1002 ft | 33 kts | 89° |
| 2026-03-27 09:30 | 50.47229 | 19.09518 | 1000 ft | 32 kts | 89° |
| 2026-03-27 09:31 | 50.47230 | 19.09872 | 1000 ft | 32 kts | 90° |
| 2026-03-27 09:31 | 50.47308 | 19.10169 | 998 ft | 30 kts | 50° |
| 2026-03-27 09:31 | 50.47435 | 19.10424 | 998 ft | 29 kts | 42° |
| 2026-03-27 09:31 | 50.47562 | 19.10423 | 1001 ft | 18 kts | 331° |
| 2026-03-27 09:32 | 50.47597 | 19.10244 | 1000 ft | 20 kts | 272° |
| 2026-03-27 09:32 | 50.47598 | 19.09670 | 1001 ft | 87 kts | 270° |
| 2026-03-27 09:32 | 50.47601 | 19.08431 | 997 ft | 141 kts | 270° |
| 2026-03-27 09:32 | 50.47582 | 19.06742 | 1302 ft | 157 kts | 274° |
| 2026-03-27 09:33 | 50.47576 | 19.04997 | 1773 ft | 164 kts | 277° |
| 2026-03-27 09:33 | 50.47550 | 19.03114 | 2320 ft | 179 kts | 272° |
| 2026-03-27 09:33 | 50.47468 | 19.01279 | 3178 ft | 165 kts | 274° |
| 2026-03-27 09:33 | 50.47447 | 18.99405 | 3608 ft | 178 kts | 279° |
| 2026-03-27 09:34 | 50.47525 | 18.97361 | 3900 ft | 195 kts | 284° |
| 2026-03-27 09:34 | 50.48015 | 18.95391 | 4109 ft | 201 kts | 314° |
| 2026-03-27 09:34 | 50.49135 | 18.94055 | 4316 ft | 209 kts | 345° |
| 2026-03-27 09:34 | 50.50608 | 18.93797 | 4618 ft | 217 kts | 5° |
| 2026-03-27 09:35 | 50.52116 | 18.93837 | 5205 ft | 221 kts | 4° |
| 2026-03-27 09:35 | 50.53680 | 18.93861 | 5824 ft | 228 kts | 4° |
| 2026-03-27 09:35 | 50.55300 | 18.93875 | 6489 ft | 237 kts | 4° |
| 2026-03-27 09:35 | 50.56934 | 18.94389 | 6965 ft | 250 kts | 30° |
| 2026-03-27 09:36 | 50.58256 | 18.96173 | 7750 ft | 255 kts | 52° |
| 2026-03-27 09:36 | 50.59321 | 18.98456 | 8790 ft | 259 kts | 57° |
| 2026-03-27 09:36 | 50.60344 | 19.00850 | 9769 ft | 266 kts | 58° |
| 2026-03-27 09:36 | 50.61399 | 19.03292 | 10571 ft | 279 kts | 57° |
| 2026-03-27 09:37 | 50.62568 | 19.05921 | 10995 ft | 303 kts | 56° |
| 2026-03-27 09:37 | 50.63832 | 19.08701 | 11459 ft | 322 kts | 56° |
| 2026-03-27 09:37 | 50.65169 | 19.11603 | 12339 ft | 328 kts | 56° |
| 2026-03-27 09:37 | 50.66511 | 19.14503 | 13247 ft | 333 kts | 56° |
| 2026-03-27 09:38 | 50.67889 | 19.17484 | 14059 ft | 340 kts | 56° |
| 2026-03-27 09:38 | 50.69275 | 19.20492 | 14862 ft | 343 kts | 56° |
| 2026-03-27 09:38 | 50.70686 | 19.23563 | 15711 ft | 346 kts | 55° |
| 2026-03-27 09:38 | 50.72113 | 19.26670 | 16521 ft | 350 kts | 55° |
| 2026-03-27 09:39 | 50.73560 | 19.29826 | 17310 ft | 354 kts | 55° |
| 2026-03-27 09:39 | 50.74995 | 19.32960 | 18096 ft | 358 kts | 54° |
| 2026-03-27 09:39 | 50.76468 | 19.36180 | 18830 ft | 362 kts | 54° |
| 2026-03-27 09:39 | 50.77952 | 19.39426 | 19516 ft | 366 kts | 55° |
| 2026-03-27 09:40 | 50.79435 | 19.42675 | 20120 ft | 371 kts | 55° |
| 2026-03-27 09:40 | 50.80951 | 19.46001 | 20799 ft | 375 kts | 56° |
| 2026-03-27 09:40 | 50.82493 | 19.49389 | 21450 ft | 379 kts | 56° |
| 2026-03-27 09:40 | 50.84034 | 19.52775 | 22053 ft | 384 kts | 56° |
| 2026-03-27 09:41 | 50.85612 | 19.56250 | 22672 ft | 389 kts | 56° |
| 2026-03-27 09:41 | 50.87191 | 19.59734 | 23288 ft | 394 kts | 57° |
| 2026-03-27 09:41 | 50.88807 | 19.63304 | 23843 ft | 398 kts | 57° |
| 2026-03-27 09:41 | 50.90416 | 19.66865 | 24291 ft | 404 kts | 57° |
| 2026-03-27 09:42 | 50.92070 | 19.70529 | 24733 ft | 410 kts | 57° |
| 2026-03-27 09:42 | 50.93743 | 19.74240 | 24948 ft | 413 kts | 57° |
| 2026-03-27 09:42 | 50.95397 | 19.77911 | 24991 ft | 414 kts | 57° |
| 2026-03-27 09:42 | 50.97078 | 19.81650 | 24970 ft | 411 kts | 57° |
| 2026-03-27 09:43 | 51.00330 | 19.88772 | 24132 ft | 393 kts | 53° |
| 2026-03-27 09:43 | 51.02201 | 19.91931 | 23400 ft | 389 kts | 45° |
| 2026-03-27 09:43 | 51.04296 | 19.94645 | 22563 ft | 385 kts | 38° |
| 2026-03-27 09:44 | 51.06409 | 19.97124 | 21770 ft | 379 kts | 39° |
| 2026-03-27 09:44 | 51.08636 | 19.99321 | 20975 ft | 375 kts | 24° |
| 2026-03-27 09:44 | 51.11151 | 20.00378 | 20234 ft | 371 kts | 6° |
| 2026-03-27 09:44 | 51.13708 | 20.00161 | 19525 ft | 366 kts | 348° |
| 2026-03-27 09:45 | 51.16108 | 19.99013 | 18853 ft | 360 kts | 343° |
| 2026-03-27 09:45 | 51.18469 | 19.97795 | 18186 ft | 352 kts | 343° |
| 2026-03-27 09:45 | 51.20793 | 19.96593 | 17301 ft | 350 kts | 343° |
| 2026-03-27 09:45 | 51.23089 | 19.95407 | 16417 ft | 349 kts | 343° |
| 2026-03-27 09:46 | 51.25418 | 19.94201 | 15536 ft | 349 kts | 342° |
| 2026-03-27 09:46 | 51.27707 | 19.93016 | 14708 ft | 349 kts | 342° |
| 2026-03-27 09:46 | 51.30030 | 19.91811 | 13887 ft | 349 kts | 342° |
| 2026-03-27 09:46 | 51.32335 | 19.90614 | 13276 ft | 341 kts | 342° |
| 2026-03-27 09:47 | 51.34518 | 19.89477 | 13077 ft | 330 kts | 342° |
| 2026-03-27 09:47 | 51.36747 | 19.88319 | 13017 ft | 345 kts | 342° |
| 2026-03-27 09:47 | 51.39058 | 19.87120 | 13022 ft | 350 kts | 342° |
| 2026-03-27 09:47 | 51.41382 | 19.85912 | 13015 ft | 350 kts | 342° |
| 2026-03-27 09:48 | 51.43674 | 19.84718 | 13028 ft | 348 kts | 342° |
| 2026-03-27 09:48 | 51.45983 | 19.83515 | 13027 ft | 347 kts | 342° |
| 2026-03-27 09:48 | 51.48297 | 19.82308 | 13029 ft | 349 kts | 342° |
| 2026-03-27 09:48 | 51.50580 | 19.81116 | 13029 ft | 349 kts | 342° |
| 2026-03-27 09:49 | 51.52886 | 19.79909 | 13034 ft | 349 kts | 342° |
| 2026-03-27 09:49 | 51.55202 | 19.78696 | 13035 ft | 348 kts | 342° |
| 2026-03-27 09:49 | 51.57489 | 19.77498 | 13037 ft | 347 kts | 342° |
| 2026-03-27 09:49 | 51.59787 | 19.76294 | 13038 ft | 346 kts | 342° |
| 2026-03-27 09:50 | 51.62087 | 19.75087 | 13050 ft | 349 kts | 342° |
| 2026-03-27 09:50 | 51.64411 | 19.73865 | 13048 ft | 351 kts | 342° |
| 2026-03-27 09:50 | 51.66706 | 19.72657 | 13046 ft | 350 kts | 341° |
| 2026-03-27 09:50 | 51.69029 | 19.71434 | 13047 ft | 348 kts | 341° |
| 2026-03-27 09:51 | 51.71314 | 19.70241 | 13059 ft | 347 kts | 342° |
| 2026-03-27 09:51 | 51.73633 | 19.69082 | 13046 ft | 349 kts | 342° |
| 2026-03-27 09:51 | 51.75965 | 19.67936 | 13046 ft | 349 kts | 342° |
| 2026-03-27 09:51 | 51.78245 | 19.66812 | 13054 ft | 338 kts | 342° |
| 2026-03-27 09:52 | 51.80443 | 19.65724 | 13047 ft | 322 kts | 342° |
| 2026-03-27 09:52 | 51.82535 | 19.64684 | 13010 ft | 307 kts | 342° |
| 2026-03-27 09:52 | 51.84527 | 19.63690 | 12842 ft | 290 kts | 342° |
| 2026-03-27 09:52 | 51.86387 | 19.62761 | 12587 ft | 274 kts | 342° |
| 2026-03-27 09:53 | 51.88180 | 19.61863 | 12089 ft | 270 kts | 343° |
| 2026-03-27 09:53 | 51.89968 | 19.60963 | 11566 ft | 267 kts | 343° |
| 2026-03-27 09:53 | 51.91733 | 19.60076 | 11053 ft | 263 kts | 343° |
| 2026-03-27 09:53 | 51.93475 | 19.59198 | 10550 ft | 260 kts | 344° |
| 2026-03-27 09:54 | 51.95184 | 19.58339 | 10060 ft | 257 kts | 344° |
| 2026-03-27 09:54 | 51.96892 | 19.57480 | 9524 ft | 254 kts | 344° |
| 2026-03-27 09:54 | 51.98555 | 19.56643 | 9034 ft | 250 kts | 345° |
| 2026-03-27 09:54 | 52.00214 | 19.55806 | 8650 ft | 248 kts | 345° |
| 2026-03-27 09:55 | 52.01835 | 19.54989 | 8302 ft | 245 kts | 345° |
| 2026-03-27 09:55 | 52.03445 | 19.54180 | 7969 ft | 241 kts | 345° |
| 2026-03-27 09:55 | 52.05053 | 19.53371 | 7625 ft | 239 kts | 345° |
| 2026-03-27 09:55 | 52.06637 | 19.52571 | 7286 ft | 236 kts | 345° |
| 2026-03-27 09:56 | 52.08209 | 19.51777 | 6924 ft | 235 kts | 345° |
| 2026-03-27 09:56 | 52.09759 | 19.51155 | 6598 ft | 230 kts | 0° |
| 2026-03-27 09:56 | 52.11287 | 19.51660 | 6243 ft | 223 kts | 28° |
| 2026-03-27 09:56 | 52.12598 | 19.52943 | 6030 ft | 215 kts | 32° |
| 2026-03-27 09:57 | 52.13873 | 19.54214 | 6013 ft | 214 kts | 32° |
| 2026-03-27 09:57 | 52.15119 | 19.55436 | 6009 ft | 202 kts | 32° |
| 2026-03-27 09:57 | 52.15325 | 19.55639 | 6013 ft | 200 kts | 32° |
| 2026-03-27 09:57 | 52.15760 | 19.56067 | 6012 ft | 197 kts | 32° |
| 2026-03-27 09:58 | 52.16955 | 19.57244 | 6012 ft | 200 kts | 32° |
| 2026-03-27 09:58 | 52.18161 | 19.58439 | 6019 ft | 203 kts | 32° |
| 2026-03-27 09:58 | 52.19386 | 19.59640 | 6016 ft | 203 kts | 31° |
| 2026-03-27 09:58 | 52.20580 | 19.60808 | 6015 ft | 202 kts | 32° |
| 2026-03-27 09:59 | 52.21789 | 19.61999 | 6014 ft | 201 kts | 31° |
| 2026-03-27 09:59 | 52.22997 | 19.63180 | 6018 ft | 202 kts | 31° |
| 2026-03-27 09:59 | 52.24180 | 19.64340 | 6016 ft | 201 kts | 31° |
| 2026-03-27 09:59 | 52.25392 | 19.65534 | 6016 ft | 203 kts | 32° |
| 2026-03-27 10:00 | 52.26589 | 19.66711 | 6011 ft | 203 kts | 32° |
| 2026-03-27 10:00 | 52.27673 | 19.68175 | 6010 ft | 202 kts | 56° |
| 2026-03-27 10:00 | 52.28273 | 19.70263 | 6012 ft | 204 kts | 66° |
| 2026-03-27 10:00 | 52.28803 | 19.72391 | 6014 ft | 205 kts | 67° |
| 2026-03-27 10:01 | 52.29335 | 19.74559 | 6008 ft | 203 kts | 66° |
| 2026-03-27 10:01 | 52.29868 | 19.76699 | 6011 ft | 203 kts | 66° |
| 2026-03-27 10:01 | 52.30406 | 19.78827 | 6004 ft | 204 kts | 66° |
| 2026-03-27 10:01 | 52.30940 | 19.80941 | 5931 ft | 197 kts | 66° |
| 2026-03-27 10:02 | 52.31458 | 19.82967 | 5851 ft | 188 kts | 65° |
| 2026-03-27 10:02 | 52.31952 | 19.84907 | 5738 ft | 182 kts | 65° |
| 2026-03-27 10:02 | 52.32438 | 19.86813 | 5506 ft | 181 kts | 65° |
| 2026-03-27 10:02 | 52.32916 | 19.88688 | 5322 ft | 181 kts | 65° |
| 2026-03-27 10:03 | 52.33398 | 19.90589 | 5108 ft | 180 kts | 65° |
| 2026-03-27 10:03 | 52.33863 | 19.92441 | 4913 ft | 174 kts | 65° |
| 2026-03-27 10:03 | 52.34325 | 19.94272 | 4529 ft | 177 kts | 64° |
| 2026-03-27 10:03 | 52.34799 | 19.96156 | 4156 ft | 178 kts | 64° |
| 2026-03-27 10:04 | 52.35265 | 19.97995 | 3847 ft | 177 kts | 64° |
| 2026-03-27 10:04 | 52.35738 | 19.99843 | 3598 ft | 174 kts | 63° |
| 2026-03-27 10:04 | 52.36192 | 20.01626 | 3506 ft | 169 kts | 63° |
| 2026-03-27 10:04 | 52.36653 | 20.03453 | 3509 ft | 173 kts | 64° |
| 2026-03-27 10:05 | 52.37083 | 20.05187 | 3521 ft | 156 kts | 64° |
| 2026-03-27 10:05 | 52.37486 | 20.06827 | 3500 ft | 155 kts | 63° |
| 2026-03-27 10:05 | 52.37870 | 20.08340 | 3516 ft | 155 kts | 63° |
| 2026-03-27 10:05 | 52.38287 | 20.09969 | 3513 ft | 155 kts | 63° |
| 2026-03-27 10:06 | 52.38700 | 20.11609 | 3499 ft | 155 kts | 63° |
| 2026-03-27 10:06 | 52.39108 | 20.13224 | 3492 ft | 155 kts | 64° |
| 2026-03-27 10:06 | 52.39515 | 20.14860 | 3502 ft | 156 kts | 63° |
| 2026-03-27 10:06 | 52.39927 | 20.16488 | 3504 ft | 156 kts | 63° |
| 2026-03-27 10:07 | 52.40332 | 20.18117 | 3496 ft | 153 kts | 63° |
| 2026-03-27 10:07 | 52.40726 | 20.19727 | 3496 ft | 154 kts | 67° |
| 2026-03-27 10:07 | 52.40937 | 20.21480 | 3503 ft | 158 kts | 76° |
| 2026-03-27 10:07 | 52.41145 | 20.23257 | 3492 ft | 158 kts | 73° |
| 2026-03-27 10:08 | 52.41351 | 20.25003 | 3497 ft | 157 kts | 74° |
| 2026-03-27 10:08 | 52.41533 | 20.26783 | 3493 ft | 157 kts | 76° |
| 2026-03-27 10:08 | 52.41695 | 20.28537 | 3498 ft | 157 kts | 76° |
| 2026-03-27 10:08 | 52.41864 | 20.30318 | 3499 ft | 158 kts | 76° |
| 2026-03-27 10:09 | 52.42032 | 20.32111 | 3496 ft | 159 kts | 76° |
| 2026-03-27 10:09 | 52.42200 | 20.33881 | 3506 ft | 157 kts | 76° |
| 2026-03-27 10:09 | 52.42358 | 20.35618 | 3504 ft | 154 kts | 76° |
| 2026-03-27 10:09 | 52.42529 | 20.37383 | 3498 ft | 157 kts | 76° |
| 2026-03-27 10:10 | 52.42696 | 20.39191 | 3518 ft | 163 kts | 77° |
| 2026-03-27 10:10 | 52.42860 | 20.40976 | 3500 ft | 156 kts | 76° |
| 2026-03-27 10:10 | 52.43027 | 20.42746 | 3500 ft | 158 kts | 76° |
| 2026-03-27 10:10 | 52.43190 | 20.44503 | 3454 ft | 150 kts | 76° |
| 2026-03-27 10:11 | 52.43335 | 20.46118 | 3221 ft | 142 kts | 76° |
| 2026-03-27 10:11 | 52.43481 | 20.47700 | 2933 ft | 138 kts | 75° |
| 2026-03-27 10:11 | 52.43644 | 20.49240 | 2655 ft | 137 kts | 73° |
| 2026-03-27 10:11 | 52.43823 | 20.50776 | 2382 ft | 141 kts | 74° |
| 2026-03-27 10:12 | 52.43932 | 20.52388 | 2092 ft | 143 kts | 80° |
| 2026-03-27 10:12 | 52.44018 | 20.54011 | 1749 ft | 141 kts | 76° |
| 2026-03-27 10:12 | 52.44164 | 20.55552 | 1520 ft | 136 kts | 73° |
| 2026-03-27 10:12 | 52.44337 | 20.57100 | 1139 ft | 138 kts | 75° |
| 2026-03-27 10:13 | 52.44490 | 20.58653 | 905 ft | 139 kts | 76° |
| 2026-03-27 10:13 | 52.44609 | 20.60205 | 725 ft | 139 kts | 78° |
| 2026-03-27 10:13 | 52.44766 | 20.61769 | 572 ft | 140 kts | 73° |
| 2026-03-27 10:13 | 52.44936 | 20.63334 | 403 ft | 138 kts | 75° |
| 2026-03-27 10:14 | 52.45091 | 20.64806 | 335 ft | 104 kts | 81° |
| 2026-03-27 10:14 | 52.45144 | 20.65370 | 338 ft | 49 kts | 86° |
| 2026-03-27 10:14 | 52.45175 | 20.65961 | 335 ft | 30 kts | 120° |
| 2026-03-27 10:14 | 52.45077 | 20.66035 | 337 ft | 23 kts | 160° |
| 2026-03-27 10:15 | 52.44885 | 20.66119 | 336 ft | 0 kts | 211° |
| 2026-03-27 10:15 | 52.44884 | 20.66116 | 336 ft | 3 kts | 223° |
| 2026-03-27 10:15 | 52.44859 | 20.65985 | 338 ft | 21 kts | 260° |
| 2026-03-27 10:15 | 52.44833 | 20.65726 | 336 ft | 24 kts | 265° |
| 2026-03-27 10:16 | 52.44807 | 20.65465 | 334 ft | 12 kts | 237° |
| 2026-03-27 10:16 | 52.44765 | 20.65422 | 335 ft | 0 kts | 205° |